Hakuho Maru — JDSS — position and weather

sailwx.info

Track history (hours):
 
Tides and Currents Weather Stations Pressure Air Temp Water Temp Dewpoint Dewpoint Depression Visibility Wind Speed Wind Dir Waves Ship Positions

Oceanographic research ship Hakuho Maru (Japan)

Detailed information on ship capabilities available from University of Delaware's Ocean Information Center.

Last reported at 2017-Apr-29 08:06 UTC. Time now 2017-Apr-30 14:44 UTC.
Position N 35°12' E 139°46'.

Length 100 m; beam 16.2 m; draft 6 m.

Type: Other ship. MMSI: 431010000.

Date/timePositionNaut miles runAvg speedWind from/ knotsBaromVisibWave heightAir tempDewpointWater temp
2017-Apr-29 08:06N 35°12' E 139°46'312.7
2017-Apr-29 07:53N 35°15' E 139°46'512.3
2017-Apr-29 07:30N 35°19' E 139°43'612.3
2017-Apr-29 07:00N 35°25' E 139°44'713.8
2017-Apr-29 06:30N 35°30' E 139°51'713.0
2017-Apr-29 06:00N 35°36' E 139°50'3 5.4
2017-Apr-29 05:31N 35°37' E 139°47'0 0.0
2017-Apr-29 04:48N 35°37' E 139°47'0 0.0
2017-Apr-29 04:06N 35°37' E 139°47'0 0.0
2017-Apr-29 03:54N 35°37' E 139°47'0 0.0
2017-Apr-29 03:18N 35°37' E 139°47'0 0.0
2017-Apr-29 03:00N 35°37' E 139°47'0 0.0
2017-Apr-29 02:30N 35°37' E 139°47'0 0.0
2017-Apr-29 01:54N 35°37' E 139°47'0 0.0
2017-Apr-29 01:30N 35°37' E 139°47'0 0.0
2017-Apr-29 01:00N 35°37' E 139°47'0 0.0
2017-Apr-29 00:30N 35°37' E 139°47'0 0.0
2017-Apr-29 00:00N 35°37' E 139°47'0 0.0
2017-Apr-28 23:30N 35°37' E 139°47'0 0.0
2017-Apr-28 22:57N 35°37' E 139°47'0 0.0
2017-Apr-28 22:24N 35°37' E 139°47'0 0.0
2017-Apr-28 21:57N 35°37' E 139°47'0 0.0
2017-Apr-28 21:30N 35°37' E 139°47'0 0.0
2017-Apr-28 21:00N 35°37' E 139°47'0 0.0
2017-Apr-28 20:30N 35°37' E 139°47'0 0.0
2017-Apr-28 19:54N 35°37' E 139°47'0 0.0
2017-Apr-28 19:30N 35°37' E 139°47'0 0.0
2017-Apr-28 19:00N 35°37' E 139°47'0 0.0
2017-Apr-28 18:30N 35°37' E 139°47'0 0.0
2017-Apr-28 17:54N 35°37' E 139°47'0 0.0
2017-Apr-28 17:24N 35°37' E 139°47'0 0.0
2017-Apr-28 17:00N 35°37' E 139°47'0 0.0
2017-Apr-28 16:30N 35°37' E 139°47'0 0.0
2017-Apr-28 16:00N 35°37' E 139°47'0 0.0
2017-Apr-28 15:30N 35°37' E 139°47'0 0.0
2017-Apr-28 15:00N 35°37' E 139°47'0 0.0
2017-Apr-28 14:00N 35°37' E 139°47'0 0.0
2017-Apr-28 13:30N 35°37' E 139°47'0 0.0
2017-Apr-28 13:00N 35°37' E 139°47'0 0.0
2017-Apr-28 12:30N 35°37' E 139°47'0 0.0
2017-Apr-28 12:00N 35°37' E 139°47'0 0.0
2017-Apr-28 11:30N 35°37' E 139°47'0 0.0
2017-Apr-28 11:00N 35°37' E 139°47'0 0.0
2017-Apr-28 10:30N 35°37' E 139°47'0 0.0
2017-Apr-28 09:57N 35°37' E 139°47'0 0.0
2017-Apr-28 09:30N 35°37' E 139°47'0 0.0
2017-Apr-28 09:00N 35°37' E 139°47'0 0.0
2017-Apr-28 08:30N 35°37' E 139°47'0 0.0
2017-Apr-28 08:00N 35°37' E 139°47'0 0.0
2017-Apr-28 07:30N 35°37' E 139°47'0 0.0
2017-Apr-28 07:00N 35°37' E 139°47'0 0.0
2017-Apr-28 06:24N 35°37' E 139°47'0 0.0
2017-Apr-28 05:54N 35°37' E 139°47'0 0.0
2017-Apr-28 05:30N 35°37' E 139°47'0 0.0
2017-Apr-28 05:00N 35°37' E 139°47'0 0.0
2017-Apr-28 04:15N 35°37' E 139°47'0 0.0
2017-Apr-28 03:51N 35°37' E 139°47'0 0.0
2017-Apr-28 03:27N 35°37' E 139°47'0 0.0
2017-Apr-28 03:00N 35°37' E 139°47'0 0.0
2017-Apr-28 02:30N 35°37' E 139°47'0 0.0
2017-Apr-28 02:00N 35°37' E 139°47'0 0.0
2017-Apr-28 01:24N 35°37' E 139°47'0 0.0
2017-Apr-28 01:01N 35°37' E 139°47'1 2.7
2017-Apr-28 00:31N 35°37' E 139°49'4 7.5
2017-Apr-28 00:01N 35°34' E 139°52'2 3.5
2017-Apr-27 23:30N 35°32' E 139°52'713.2
2017-Apr-27 23:00N 35°26' E 139°49'612.6
2017-Apr-27 22:30N 35°21' E 139°45'510.5
2017-Apr-27 22:00N 35°16' E 139°46'611.6
2017-Apr-27 21:30N 35°10' E 139°46'612.2
2017-Apr-27 21:00N 35°04' E 139°44'21 1.3
2017-Apr-27 05:29N 35°05' E 139°19'10 0.2
2017-Apr-25 09:42N 34°55' E 139°23'415.1
2017-Apr-25 09:26N 34°57' E 139°27'615.2
2017-Apr-25 09:00N 35°01' E 139°33'815.2
2017-Apr-25 08:30N 35°05' E 139°41'714.7
2017-Apr-25 08:00N 35°11' E 139°46'611.9
2017-Apr-25 07:30N 35°17' E 139°45'612.6
2017-Apr-25 07:00N 35°23' E 139°42'714.2
2017-Apr-25 06:30N 35°28' E 139°49'612.9
2017-Apr-25 06:00N 35°34' E 139°51'4 7.7
2017-Apr-25 05:30N 35°38' E 139°48'0 0.0
2017-Apr-25 04:51N 35°38' E 139°48'0 0.0
2017-Apr-25 04:30N 35°38' E 139°48'0 0.0
2017-Apr-25 04:00N 35°38' E 139°48'0 0.0
2017-Apr-25 03:30N 35°38' E 139°48'0 0.0
2017-Apr-25 02:57N 35°38' E 139°48'0 0.0
2017-Apr-25 02:30N 35°38' E 139°48'0 0.0
2017-Apr-25 02:00N 35°38' E 139°48'0 0.0
2017-Apr-25 01:27N 35°38' E 139°48'0 0.0
2017-Apr-25 01:00N 35°38' E 139°48'0 0.0
2017-Apr-25 00:30N 35°38' E 139°48'0 0.0
2017-Apr-24 23:54N 35°38' E 139°48'0 0.0
2017-Apr-24 23:30N 35°38' E 139°48'0 0.0
2017-Apr-24 23:00N 35°38' E 139°48'0 0.0
2017-Apr-24 22:30N 35°38' E 139°48'0 0.0
2017-Apr-24 22:00N 35°38' E 139°48'0 0.0
2017-Apr-24 21:24N 35°38' E 139°48'0 0.0
2017-Apr-24 21:00N 35°38' E 139°48'0 0.0
2017-Apr-24 20:30N 35°38' E 139°48'0 0.0
2017-Apr-24 19:57N 35°38' E 139°48'0 0.0
2017-Apr-24 19:30N 35°38' E 139°48'0 0.0
2017-Apr-24 18:57N 35°38' E 139°48'0 0.0
2017-Apr-24 18:30N 35°38' E 139°48'0 0.0
2017-Apr-24 18:00N 35°38' E 139°48'0 0.0
2017-Apr-24 17:30N 35°38' E 139°48'0 0.0
2017-Apr-24 17:00N 35°38' E 139°48'0 0.0
2017-Apr-24 16:30N 35°38' E 139°48'0 0.0
2017-Apr-24 16:00N 35°38' E 139°48'0 0.0
2017-Apr-24 15:30N 35°38' E 139°48'0 0.0
2017-Apr-24 14:57N 35°38' E 139°48'0 0.0
2017-Apr-24 14:30N 35°38' E 139°48'0 0.0
2017-Apr-24 13:30N 35°38' E 139°48'0 0.0
2017-Apr-24 13:00N 35°38' E 139°48'0 0.0
2017-Apr-24 12:30N 35°38' E 139°48'0 0.0
2017-Apr-24 11:57N 35°38' E 139°48'0 0.0
2017-Apr-24 11:30N 35°38' E 139°48'0 0.0
2017-Apr-24 11:00N 35°38' E 139°48'0 0.0
2017-Apr-24 10:27N 35°38' E 139°48'0 0.0
2017-Apr-24 10:00N 35°38' E 139°48'0 0.0
2017-Apr-24 09:30N 35°38' E 139°48'0 0.0
2017-Apr-24 09:00N 35°38' E 139°48'0 0.0
2017-Apr-24 08:30N 35°38' E 139°48'0 0.0
2017-Apr-24 08:00N 35°38' E 139°48'0 0.0
2017-Apr-24 07:27N 35°38' E 139°48'0 0.0
2017-Apr-24 07:00N 35°38' E 139°48'0 0.0
2017-Apr-24 06:24N 35°38' E 139°48'0 0.0
2017-Apr-24 06:00N 35°38' E 139°48'0 0.0
2017-Apr-24 05:30N 35°38' E 139°48'0 0.0
2017-Apr-24 04:54N 35°38' E 139°48'0 0.0
2017-Apr-24 04:21N 35°38' E 139°48'0 0.0
2017-Apr-24 03:54N 35°38' E 139°48'0 0.0
2017-Apr-24 03:27N 35°38' E 139°48'0 0.0
2017-Apr-24 02:54N 35°38' E 139°48'0 0.0
2017-Apr-24 02:30N 35°38' E 139°48'0 0.0
2017-Apr-24 02:00N 35°38' E 139°48'0 0.0
2017-Apr-24 01:30N 35°38' E 139°48'0 0.0
2017-Apr-24 01:00N 35°38' E 139°48'0 0.0
2017-Apr-24 00:30N 35°38' E 139°48'0 0.0
2017-Apr-24 00:00N 35°38' E 139°48'0 0.0
2017-Apr-23 23:30N 35°38' E 139°48'0 0.0
2017-Apr-23 23:00N 35°38' E 139°48'0 0.0
2017-Apr-23 22:30N 35°38' E 139°48'0 0.0
2017-Apr-23 22:00N 35°38' E 139°48'0 0.0
2017-Apr-23 21:30N 35°38' E 139°48'0 0.0
2017-Apr-23 21:00N 35°38' E 139°48'0 0.0
2017-Apr-23 20:30N 35°38' E 139°48'0 0.0
2017-Apr-23 20:00N 35°38' E 139°48'0 0.0
2017-Apr-23 19:30N 35°38' E 139°48'0 0.0
2017-Apr-23 18:57N 35°38' E 139°48'0 0.0
2017-Apr-23 18:30N 35°38' E 139°48'0 0.0
2017-Apr-23 18:00N 35°38' E 139°48'0 0.0
2017-Apr-23 17:30N 35°38' E 139°48'0 0.0
2017-Apr-23 16:57N 35°38' E 139°48'0 0.0
2017-Apr-23 16:30N 35°38' E 139°48'0 0.0
2017-Apr-23 16:00N 35°38' E 139°48'0 0.0
2017-Apr-23 15:30N 35°38' E 139°48'0 0.0
2017-Apr-23 15:00N 35°38' E 139°48'0 0.0
2017-Apr-23 14:00N 35°38' E 139°48'0 0.0
2017-Apr-23 13:27N 35°38' E 139°48'0 0.0
2017-Apr-23 13:00N 35°38' E 139°48'0 0.0
2017-Apr-23 12:30N 35°38' E 139°48'0 0.0
2017-Apr-23 12:00N 35°38' E 139°48'0 0.0
2017-Apr-23 11:24N 35°38' E 139°48'0 0.0
2017-Apr-23 11:00N 35°38' E 139°48'0 0.0
2017-Apr-23 10:30N 35°38' E 139°48'0 0.0
2017-Apr-23 10:00N 35°38' E 139°48'0 0.0
2017-Apr-23 09:27N 35°38' E 139°48'0 0.0
2017-Apr-23 09:00N 35°38' E 139°48'0 0.0
2017-Apr-23 08:27N 35°38' E 139°48'0 0.0
2017-Apr-23 07:57N 35°38' E 139°48'0 0.0
2017-Apr-23 07:27N 35°38' E 139°48'0 0.0
2017-Apr-23 06:45N 35°38' E 139°48'0 0.0
2017-Apr-23 06:30N 35°38' E 139°48'0 0.0
2017-Apr-23 06:00N 35°38' E 139°48'0 0.0
2017-Apr-23 05:30N 35°38' E 139°48'0 0.0
2017-Apr-23 05:00N 35°38' E 139°48'0 0.0
2017-Apr-23 04:24N 35°38' E 139°48'0 0.0
2017-Apr-23 04:00N 35°38' E 139°48'0 0.0
2017-Apr-23 03:27N 35°38' E 139°48'0 0.0
2017-Apr-23 03:00N 35°38' E 139°48'0 0.0
2017-Apr-23 02:30N 35°38' E 139°48'0 0.0
2017-Apr-23 02:00N 35°38' E 139°48'0 0.0
2017-Apr-23 01:30N 35°38' E 139°48'0 0.0
2017-Apr-23 01:00N 35°38' E 139°48'0 0.0
2017-Apr-23 00:30N 35°38' E 139°48'0 0.0
2017-Apr-23 00:00N 35°38' E 139°48'0 0.0
2017-Apr-22 23:30N 35°38' E 139°48'0 0.0
2017-Apr-22 23:00N 35°38' E 139°48'0 0.0
2017-Apr-22 22:30N 35°38' E 139°48'0 0.0
2017-Apr-22 22:00N 35°38' E 139°48'0 0.0
2017-Apr-22 21:30N 35°38' E 139°48'0 0.0
2017-Apr-22 21:00N 35°38' E 139°48'0 0.0
2017-Apr-22 20:30N 35°38' E 139°48'0 0.0
2017-Apr-22 20:00N 35°38' E 139°48'0 0.0
2017-Apr-22 19:21N 35°38' E 139°48'0 0.0
2017-Apr-22 19:00N 35°38' E 139°48'0 0.0
2017-Apr-22 18:30N 35°38' E 139°48'0 0.0
2017-Apr-22 17:57N 35°38' E 139°48'0 0.0
2017-Apr-22 17:30N 35°38' E 139°48'0 0.0
2017-Apr-22 17:00N 35°38' E 139°48'0 0.0
2017-Apr-22 16:30N 35°38' E 139°48'0 0.0
2017-Apr-22 16:00N 35°38' E 139°48'0 0.0
2017-Apr-22 15:30N 35°38' E 139°48'0 0.0
2017-Apr-22 15:00N 35°38' E 139°48'0 0.0
2017-Apr-22 14:30N 35°38' E 139°48'0 0.0
2017-Apr-22 13:30N 35°38' E 139°48'0 0.0
2017-Apr-22 13:00N 35°38' E 139°48'0 0.0
2017-Apr-22 12:30N 35°38' E 139°48'0 0.0
2017-Apr-22 12:00N 35°38' E 139°48'0 0.0
2017-Apr-22 11:30N 35°38' E 139°48'0 0.0
2017-Apr-22 11:00N 35°38' E 139°48'0 0.0
2017-Apr-22 10:30N 35°38' E 139°48'0 0.0
2017-Apr-22 10:00N 35°38' E 139°48'0 0.0
2017-Apr-22 09:30N 35°38' E 139°48'0 0.0
2017-Apr-22 09:00N 35°38' E 139°48'0 0.0
2017-Apr-22 08:30N 35°38' E 139°48'0 0.0
2017-Apr-22 08:00N 35°38' E 139°48'0 0.0
2017-Apr-22 07:30N 35°38' E 139°48'0 0.0
2017-Apr-22 06:57N 35°38' E 139°48'0 0.0
2017-Apr-22 06:30N 35°38' E 139°48'0 0.0
2017-Apr-22 06:00N 35°38' E 139°48'0 0.0
2017-Apr-22 05:30N 35°38' E 139°48'0 0.0
2017-Apr-22 04:57N 35°38' E 139°48'0 0.0
2017-Apr-22 04:30N 35°38' E 139°48'0 0.0
2017-Apr-22 04:00N 35°38' E 139°48'0 0.0
2017-Apr-22 03:30N 35°38' E 139°48'0 0.0
2017-Apr-22 03:00N 35°38' E 139°48'0 0.0
2017-Apr-22 02:30N 35°38' E 139°48'0 0.0
2017-Apr-22 02:00N 35°38' E 139°48'0 0.0
2017-Apr-22 01:30N 35°38' E 139°48'0 0.0
2017-Apr-22 01:00N 35°38' E 139°48'0 0.0
2017-Apr-22 00:30N 35°38' E 139°48'0 0.0
2017-Apr-21 23:54N 35°38' E 139°48'0 0.0
2017-Apr-21 23:30N 35°38' E 139°48'0 0.0
2017-Apr-21 23:00N 35°38' E 139°48'0 0.0
2017-Apr-21 22:30N 35°38' E 139°48'0 0.0
2017-Apr-21 22:00N 35°38' E 139°48'0 0.0
2017-Apr-21 21:30N 35°38' E 139°48'0 0.0
2017-Apr-21 20:57N 35°38' E 139°48'0 0.0
2017-Apr-21 20:30N 35°38' E 139°48'0 0.0
2017-Apr-21 20:00N 35°38' E 139°48'0 0.0
2017-Apr-21 19:30N 35°38' E 139°48'0 0.0
2017-Apr-21 19:00N 35°38' E 139°48'0 0.0
2017-Apr-21 18:30N 35°38' E 139°48'0 0.0
2017-Apr-21 17:57N 35°38' E 139°48'0 0.0
2017-Apr-21 17:30N 35°38' E 139°48'0 0.0
2017-Apr-21 17:00N 35°38' E 139°48'0 0.0
2017-Apr-21 16:30N 35°38' E 139°48'0 0.0
2017-Apr-21 16:00N 35°38' E 139°48'0 0.0
2017-Apr-21 15:27N 35°38' E 139°48'0 0.0
2017-Apr-21 15:00N 35°38' E 139°48'0 0.0
2017-Apr-21 14:30N 35°38' E 139°48'0 0.0
2017-Apr-21 13:27N 35°38' E 139°48'0 0.0
2017-Apr-21 13:00N 35°38' E 139°48'0 0.0
2017-Apr-21 12:30N 35°38' E 139°48'0 0.0
2017-Apr-21 11:54N 35°38' E 139°48'0 0.0
2017-Apr-21 11:30N 35°38' E 139°48'0 0.0
2017-Apr-21 11:00N 35°38' E 139°48'0 0.0
2017-Apr-21 10:30N 35°38' E 139°48'0 0.0
2017-Apr-21 10:00N 35°38' E 139°48'0 0.0
2017-Apr-21 09:24N 35°38' E 139°48'0 0.0
2017-Apr-21 09:00N 35°38' E 139°48'0 0.0
2017-Apr-21 08:30N 35°38' E 139°48'0 0.0
2017-Apr-21 07:57N 35°38' E 139°48'0 0.0
2017-Apr-21 07:30N 35°38' E 139°48'0 0.0
2017-Apr-21 07:00N 35°38' E 139°48'0 0.0
2017-Apr-21 06:30N 35°38' E 139°48'0 0.0
2017-Apr-21 06:00N 35°38' E 139°48'0 0.0
2017-Apr-21 05:30N 35°38' E 139°48'0 0.0
2017-Apr-21 04:54N 35°38' E 139°48'0 0.0
2017-Apr-21 04:30N 35°38' E 139°48'0 0.0
2017-Apr-21 04:00N 35°38' E 139°48'0 0.0
2017-Apr-21 03:30N 35°38' E 139°48'0 0.0
2017-Apr-21 03:00N 35°38' E 139°48'0 0.0
2017-Apr-21 02:12N 35°38' E 139°48'0 0.0
2017-Apr-21 02:00N 35°38' E 139°48'0 0.0
2017-Apr-21 01:30N 35°38' E 139°48'0 0.0
2017-Apr-21 01:00N 35°38' E 139°48'0 0.0
2017-Apr-21 00:30N 35°38' E 139°48'0 0.0
2017-Apr-21 00:00N 35°38' E 139°48'0 0.0
2017-Apr-20 23:30N 35°38' E 139°48'0 0.0
2017-Apr-20 23:00N 35°38' E 139°48'0 0.0
2017-Apr-20 22:27N 35°38' E 139°48'0 0.0
2017-Apr-20 22:00N 35°38' E 139°48'0 0.0
2017-Apr-20 21:30N 35°38' E 139°48'0 0.0
2017-Apr-20 20:57N 35°38' E 139°48'0 0.0
2017-Apr-20 20:27N 35°38' E 139°48'0 0.0
2017-Apr-20 20:00N 35°38' E 139°48'0 0.0
2017-Apr-20 19:30N 35°38' E 139°48'0 0.0
2017-Apr-20 19:00N 35°38' E 139°48'0 0.0
2017-Apr-20 18:30N 35°38' E 139°48'0 0.0
2017-Apr-20 18:00N 35°38' E 139°48'0 0.0
2017-Apr-20 17:30N 35°38' E 139°48'0 0.0
2017-Apr-20 17:00N 35°38' E 139°48'0 0.0
2017-Apr-20 16:30N 35°38' E 139°48'0 0.0
2017-Apr-20 16:00N 35°38' E 139°48'0 0.0
2017-Apr-20 15:30N 35°38' E 139°48'0 0.0
2017-Apr-20 15:00N 35°38' E 139°48'0 0.0
2017-Apr-20 14:30N 35°38' E 139°48'0 0.0
2017-Apr-20 13:30N 35°38' E 139°48'0 0.0
2017-Apr-20 12:57N 35°38' E 139°48'0 0.0
2017-Apr-20 12:30N 35°38' E 139°48'0 0.0
2017-Apr-20 11:57N 35°38' E 139°48'0 0.0
2017-Apr-20 11:27N 35°38' E 139°48'0 0.0
2017-Apr-20 11:00N 35°38' E 139°48'0 0.0
2017-Apr-20 10:18N 35°38' E 139°48'0 0.0
2017-Apr-20 09:36N 35°38' E 139°48'0 0.0
2017-Apr-20 09:30N 35°38' E 139°48'0 0.0
2017-Apr-20 08:54N 35°38' E 139°48'0 0.0
2017-Apr-20 08:30N 35°38' E 139°48'0 0.0
2017-Apr-20 07:54N 35°38' E 139°48'0 0.0
2017-Apr-20 07:30N 35°38' E 139°48'0 0.0
2017-Apr-20 07:00N 35°38' E 139°48'0 0.0
2017-Apr-20 06:30N 35°38' E 139°48'0 0.0
2017-Apr-20 05:48N 35°38' E 139°48'0 0.0
2017-Apr-20 05:30N 35°38' E 139°48'0 0.0
2017-Apr-20 05:00N 35°38' E 139°48'0 0.0
2017-Apr-20 04:30N 35°38' E 139°48'0 0.0
2017-Apr-20 03:48N 35°38' E 139°48'0 0.0
2017-Apr-20 03:30N 35°38' E 139°48'0 0.0
2017-Apr-20 02:54N 35°38' E 139°48'0 0.0
2017-Apr-20 02:30N 35°38' E 139°48'0 0.0
2017-Apr-20 01:57N 35°38' E 139°48'0 0.0
2017-Apr-20 01:27N 35°38' E 139°48'0 0.0
2017-Apr-20 01:00N 35°38' E 139°48'0 0.0
2017-Apr-20 00:30N 35°38' E 139°48'0 0.0
2017-Apr-19 23:57N 35°38' E 139°48'0 0.0
2017-Apr-19 23:30N 35°38' E 139°48'0 0.0
2017-Apr-19 22:57N 35°38' E 139°48'0 0.0
2017-Apr-19 22:30N 35°38' E 139°48'0 0.0
2017-Apr-19 22:00N 35°38' E 139°48'0 0.0
2017-Apr-19 21:30N 35°38' E 139°48'0 0.0
2017-Apr-19 21:00N 35°38' E 139°48'0 0.0
2017-Apr-19 20:30N 35°38' E 139°48'0 0.0
2017-Apr-19 20:00N 35°38' E 139°48'0 0.0
2017-Apr-19 19:27N 35°38' E 139°48'0 0.0
2017-Apr-19 19:00N 35°38' E 139°48'0 0.0
2017-Apr-19 18:27N 35°38' E 139°48'0 0.0
2017-Apr-19 17:57N 35°38' E 139°48'0 0.0
2017-Apr-19 17:30N 35°38' E 139°48'0 0.0
2017-Apr-19 17:00N 35°38' E 139°48'0 0.0
2017-Apr-19 16:30N 35°38' E 139°48'0 0.0
2017-Apr-19 16:00N 35°38' E 139°48'0 0.0
2017-Apr-19 15:30N 35°38' E 139°48'0 0.0
2017-Apr-19 14:57N 35°38' E 139°48'0 0.0
2017-Apr-19 14:30N 35°38' E 139°48'0 0.0
2017-Apr-19 13:30N 35°38' E 139°48'0 0.0
2017-Apr-19 13:00N 35°38' E 139°48'0 0.0
2017-Apr-19 12:30N 35°38' E 139°48'0 0.0
2017-Apr-19 11:57N 35°38' E 139°48'0 0.0
2017-Apr-19 10:48N 35°38' E 139°48'0 0.0
2017-Apr-19 10:30N 35°38' E 139°48'0 0.0
2017-Apr-19 10:00N 35°38' E 139°48'0 0.0
2017-Apr-19 09:27N 35°38' E 139°48'0 0.0
2017-Apr-19 09:00N 35°38' E 139°48'0 0.0
2017-Apr-19 08:27N 35°38' E 139°48'  
Track history (hours):
 
Tides and Currents Weather Stations Pressure Air Temp Water Temp Dewpoint Dewpoint Depression Visibility Wind Speed Wind Dir Waves Ship Positions

Oceanographic research ship Hakuho Maru (Japan)

Detailed information on ship capabilities available from University of Delaware's Ocean Information Center.

Last reported at 2017-Apr-29 08:06 UTC. Time now 2017-Apr-30 14:44 UTC.
Position N 35°12' E 139°46'.

Length 100 m; beam 16.2 m; draft 6 m.

Type: Other ship. MMSI: 431010000.

Date/timePositionNaut miles runAvg speedWind from/ knotsBaromVisibWave heightAir tempDewpointWater temp
2017-Apr-29 08:06N 35°12' E 139°46'312.7
2017-Apr-29 07:53N 35°15' E 139°46'512.3
2017-Apr-29 07:30N 35°19' E 139°43'612.3
2017-Apr-29 07:00N 35°25' E 139°44'713.8
2017-Apr-29 06:30N 35°30' E 139°51'713.0
2017-Apr-29 06:00N 35°36' E 139°50'3 5.4
2017-Apr-29 05:31N 35°37' E 139°47'0 0.0
2017-Apr-29 04:48N 35°37' E 139°47'0 0.0
2017-Apr-29 04:06N 35°37' E 139°47'0 0.0
2017-Apr-29 03:54N 35°37' E 139°47'0 0.0
2017-Apr-29 03:18N 35°37' E 139°47'0 0.0
2017-Apr-29 03:00N 35°37' E 139°47'0 0.0
2017-Apr-29 02:30N 35°37' E 139°47'0 0.0
2017-Apr-29 01:54N 35°37' E 139°47'0 0.0
2017-Apr-29 01:30N 35°37' E 139°47'0 0.0
2017-Apr-29 01:00N 35°37' E 139°47'0 0.0
2017-Apr-29 00:30N 35°37' E 139°47'0 0.0
2017-Apr-29 00:00N 35°37' E 139°47'0 0.0
2017-Apr-28 23:30N 35°37' E 139°47'0 0.0
2017-Apr-28 22:57N 35°37' E 139°47'0 0.0
2017-Apr-28 22:24N 35°37' E 139°47'0 0.0
2017-Apr-28 21:57N 35°37' E 139°47'0 0.0
2017-Apr-28 21:30N 35°37' E 139°47'0 0.0
2017-Apr-28 21:00N 35°37' E 139°47'0 0.0
2017-Apr-28 20:30N 35°37' E 139°47'0 0.0
2017-Apr-28 19:54N 35°37' E 139°47'0 0.0
2017-Apr-28 19:30N 35°37' E 139°47'0 0.0
2017-Apr-28 19:00N 35°37' E 139°47'0 0.0
2017-Apr-28 18:30N 35°37' E 139°47'0 0.0
2017-Apr-28 17:54N 35°37' E 139°47'0 0.0
2017-Apr-28 17:24N 35°37' E 139°47'0 0.0
2017-Apr-28 17:00N 35°37' E 139°47'0 0.0
2017-Apr-28 16:30N 35°37' E 139°47'0 0.0
2017-Apr-28 16:00N 35°37' E 139°47'0 0.0
2017-Apr-28 15:30N 35°37' E 139°47'0 0.0
2017-Apr-28 15:00N 35°37' E 139°47'0 0.0
2017-Apr-28 14:00N 35°37' E 139°47'0 0.0
2017-Apr-28 13:30N 35°37' E 139°47'0 0.0
2017-Apr-28 13:00N 35°37' E 139°47'0 0.0
2017-Apr-28 12:30N 35°37' E 139°47'0 0.0
2017-Apr-28 12:00N 35°37' E 139°47'0 0.0
2017-Apr-28 11:30N 35°37' E 139°47'0 0.0
2017-Apr-28 11:00N 35°37' E 139°47'0 0.0
2017-Apr-28 10:30N 35°37' E 139°47'0 0.0
2017-Apr-28 09:57N 35°37' E 139°47'0 0.0
2017-Apr-28 09:30N 35°37' E 139°47'0 0.0
2017-Apr-28 09:00N 35°37' E 139°47'0 0.0
2017-Apr-28 08:30N 35°37' E 139°47'0 0.0
2017-Apr-28 08:00N 35°37' E 139°47'0 0.0
2017-Apr-28 07:30N 35°37' E 139°47'0 0.0
2017-Apr-28 07:00N 35°37' E 139°47'0 0.0
2017-Apr-28 06:24N 35°37' E 139°47'0 0.0
2017-Apr-28 05:54N 35°37' E 139°47'0 0.0
2017-Apr-28 05:30N 35°37' E 139°47'0 0.0
2017-Apr-28 05:00N 35°37' E 139°47'0 0.0
2017-Apr-28 04:15N 35°37' E 139°47'0 0.0
2017-Apr-28 03:51N 35°37' E 139°47'0 0.0
2017-Apr-28 03:27N 35°37' E 139°47'0 0.0
2017-Apr-28 03:00N 35°37' E 139°47'0 0.0
2017-Apr-28 02:30N 35°37' E 139°47'0 0.0
2017-Apr-28 02:00N 35°37' E 139°47'0 0.0
2017-Apr-28 01:24N 35°37' E 139°47'0 0.0
2017-Apr-28 01:01N 35°37' E 139°47'1 2.7
2017-Apr-28 00:31N 35°37' E 139°49'4 7.5
2017-Apr-28 00:01N 35°34' E 139°52'2 3.5
2017-Apr-27 23:30N 35°32' E 139°52'713.2
2017-Apr-27 23:00N 35°26' E 139°49'612.6
2017-Apr-27 22:30N 35°21' E 139°45'510.5
2017-Apr-27 22:00N 35°16' E 139°46'611.6
2017-Apr-27 21:30N 35°10' E 139°46'612.2
2017-Apr-27 21:00N 35°04' E 139°44'21 1.3
2017-Apr-27 05:29N 35°05' E 139°19'10 0.2
2017-Apr-25 09:42N 34°55' E 139°23'415.1
2017-Apr-25 09:26N 34°57' E 139°27'615.2
2017-Apr-25 09:00N 35°01' E 139°33'815.2
2017-Apr-25 08:30N 35°05' E 139°41'714.7
2017-Apr-25 08:00N 35°11' E 139°46'611.9
2017-Apr-25 07:30N 35°17' E 139°45'612.6
2017-Apr-25 07:00N 35°23' E 139°42'714.2
2017-Apr-25 06:30N 35°28' E 139°49'612.9
2017-Apr-25 06:00N 35°34' E 139°51'4 7.7
2017-Apr-25 05:30N 35°38' E 139°48'0 0.0
2017-Apr-25 04:51N 35°38' E 139°48'0 0.0
2017-Apr-25 04:30N 35°38' E 139°48'0 0.0
2017-Apr-25 04:00N 35°38' E 139°48'0 0.0
2017-Apr-25 03:30N 35°38' E 139°48'0 0.0
2017-Apr-25 02:57N 35°38' E 139°48'0 0.0
2017-Apr-25 02:30N 35°38' E 139°48'0 0.0
2017-Apr-25 02:00N 35°38' E 139°48'0 0.0
2017-Apr-25 01:27N 35°38' E 139°48'0 0.0
2017-Apr-25 01:00N 35°38' E 139°48'0 0.0
2017-Apr-25 00:30N 35°38' E 139°48'0 0.0
2017-Apr-24 23:54N 35°38' E 139°48'0 0.0
2017-Apr-24 23:30N 35°38' E 139°48'0 0.0
2017-Apr-24 23:00N 35°38' E 139°48'0 0.0
2017-Apr-24 22:30N 35°38' E 139°48'0 0.0
2017-Apr-24 22:00N 35°38' E 139°48'0 0.0
2017-Apr-24 21:24N 35°38' E 139°48'0 0.0
2017-Apr-24 21:00N 35°38' E 139°48'0 0.0
2017-Apr-24 20:30N 35°38' E 139°48'0 0.0
2017-Apr-24 19:57N 35°38' E 139°48'0 0.0
2017-Apr-24 19:30N 35°38' E 139°48'0 0.0
2017-Apr-24 18:57N 35°38' E 139°48'0 0.0
2017-Apr-24 18:30N 35°38' E 139°48'0 0.0
2017-Apr-24 18:00N 35°38' E 139°48'0 0.0
2017-Apr-24 17:30N 35°38' E 139°48'0 0.0
2017-Apr-24 17:00N 35°38' E 139°48'0 0.0
2017-Apr-24 16:30N 35°38' E 139°48'0 0.0
2017-Apr-24 16:00N 35°38' E 139°48'0 0.0
2017-Apr-24 15:30N 35°38' E 139°48'0 0.0
2017-Apr-24 14:57N 35°38' E 139°48'0 0.0
2017-Apr-24 14:30N 35°38' E 139°48'0 0.0
2017-Apr-24 13:30N 35°38' E 139°48'0 0.0
2017-Apr-24 13:00N 35°38' E 139°48'0 0.0
2017-Apr-24 12:30N 35°38' E 139°48'0 0.0
2017-Apr-24 11:57N 35°38' E 139°48'0 0.0
2017-Apr-24 11:30N 35°38' E 139°48'0 0.0
2017-Apr-24 11:00N 35°38' E 139°48'0 0.0
2017-Apr-24 10:27N 35°38' E 139°48'0 0.0
2017-Apr-24 10:00N 35°38' E 139°48'0 0.0
2017-Apr-24 09:30N 35°38' E 139°48'0 0.0
2017-Apr-24 09:00N 35°38' E 139°48'0 0.0
2017-Apr-24 08:30N 35°38' E 139°48'0 0.0
2017-Apr-24 08:00N 35°38' E 139°48'0 0.0
2017-Apr-24 07:27N 35°38' E 139°48'0 0.0
2017-Apr-24 07:00N 35°38' E 139°48'0 0.0
2017-Apr-24 06:24N 35°38' E 139°48'0 0.0
2017-Apr-24 06:00N 35°38' E 139°48'0 0.0
2017-Apr-24 05:30N 35°38' E 139°48'0 0.0
2017-Apr-24 04:54N 35°38' E 139°48'0 0.0
2017-Apr-24 04:21N 35°38' E 139°48'0 0.0
2017-Apr-24 03:54N 35°38' E 139°48'0 0.0
2017-Apr-24 03:27N 35°38' E 139°48'0 0.0
2017-Apr-24 02:54N 35°38' E 139°48'0 0.0
2017-Apr-24 02:30N 35°38' E 139°48'0 0.0
2017-Apr-24 02:00N 35°38' E 139°48'0 0.0
2017-Apr-24 01:30N 35°38' E 139°48'0 0.0
2017-Apr-24 01:00N 35°38' E 139°48'0 0.0
2017-Apr-24 00:30N 35°38' E 139°48'0 0.0
2017-Apr-24 00:00N 35°38' E 139°48'0 0.0
2017-Apr-23 23:30N 35°38' E 139°48'0 0.0
2017-Apr-23 23:00N 35°38' E 139°48'0 0.0
2017-Apr-23 22:30N 35°38' E 139°48'0 0.0
2017-Apr-23 22:00N 35°38' E 139°48'0 0.0
2017-Apr-23 21:30N 35°38' E 139°48'0 0.0
2017-Apr-23 21:00N 35°38' E 139°48'0 0.0
2017-Apr-23 20:30N 35°38' E 139°48'0 0.0
2017-Apr-23 20:00N 35°38' E 139°48'0 0.0
2017-Apr-23 19:30N 35°38' E 139°48'0 0.0
2017-Apr-23 18:57N 35°38' E 139°48'0 0.0
2017-Apr-23 18:30N 35°38' E 139°48'0 0.0
2017-Apr-23 18:00N 35°38' E 139°48'0 0.0
2017-Apr-23 17:30N 35°38' E 139°48'0 0.0
2017-Apr-23 16:57N 35°38' E 139°48'0 0.0
2017-Apr-23 16:30N 35°38' E 139°48'0 0.0
2017-Apr-23 16:00N 35°38' E 139°48'0 0.0
2017-Apr-23 15:30N 35°38' E 139°48'0 0.0
2017-Apr-23 15:00N 35°38' E 139°48'0 0.0
2017-Apr-23 14:00N 35°38' E 139°48'0 0.0
2017-Apr-23 13:27N 35°38' E 139°48'0 0.0
2017-Apr-23 13:00N 35°38' E 139°48'0 0.0
2017-Apr-23 12:30N 35°38' E 139°48'0 0.0
2017-Apr-23 12:00N 35°38' E 139°48'0 0.0
2017-Apr-23 11:24N 35°38' E 139°48'0 0.0
2017-Apr-23 11:00N 35°38' E 139°48'0 0.0
2017-Apr-23 10:30N 35°38' E 139°48'0 0.0
2017-Apr-23 10:00N 35°38' E 139°48'0 0.0
2017-Apr-23 09:27N 35°38' E 139°48'0 0.0
2017-Apr-23 09:00N 35°38' E 139°48'0 0.0
2017-Apr-23 08:27N 35°38' E 139°48'0 0.0
2017-Apr-23 07:57N 35°38' E 139°48'0 0.0
2017-Apr-23 07:27N 35°38' E 139°48'0 0.0
2017-Apr-23 06:45N 35°38' E 139°48'0 0.0
2017-Apr-23 06:30N 35°38' E 139°48'0 0.0
2017-Apr-23 06:00N 35°38' E 139°48'0 0.0
2017-Apr-23 05:30N 35°38' E 139°48'0 0.0
2017-Apr-23 05:00N 35°38' E 139°48'0 0.0
2017-Apr-23 04:24N 35°38' E 139°48'0 0.0
2017-Apr-23 04:00N 35°38' E 139°48'0 0.0
2017-Apr-23 03:27N 35°38' E 139°48'0 0.0
2017-Apr-23 03:00N 35°38' E 139°48'0 0.0
2017-Apr-23 02:30N 35°38' E 139°48'0 0.0
2017-Apr-23 02:00N 35°38' E 139°48'0 0.0
2017-Apr-23 01:30N 35°38' E 139°48'0 0.0
2017-Apr-23 01:00N 35°38' E 139°48'0 0.0
2017-Apr-23 00:30N 35°38' E 139°48'0 0.0
2017-Apr-23 00:00N 35°38' E 139°48'0 0.0
2017-Apr-22 23:30N 35°38' E 139°48'0 0.0
2017-Apr-22 23:00N 35°38' E 139°48'0 0.0
2017-Apr-22 22:30N 35°38' E 139°48'0 0.0
2017-Apr-22 22:00N 35°38' E 139°48'0 0.0
2017-Apr-22 21:30N 35°38' E 139°48'0 0.0
2017-Apr-22 21:00N 35°38' E 139°48'0 0.0
2017-Apr-22 20:30N 35°38' E 139°48'0 0.0
2017-Apr-22 20:00N 35°38' E 139°48'0 0.0
2017-Apr-22 19:21N 35°38' E 139°48'0 0.0
2017-Apr-22 19:00N 35°38' E 139°48'0 0.0
2017-Apr-22 18:30N 35°38' E 139°48'0 0.0
2017-Apr-22 17:57N 35°38' E 139°48'0 0.0
2017-Apr-22 17:30N 35°38' E 139°48'0 0.0
2017-Apr-22 17:00N 35°38' E 139°48'0 0.0
2017-Apr-22 16:30N 35°38' E 139°48'0 0.0
2017-Apr-22 16:00N 35°38' E 139°48'0 0.0
2017-Apr-22 15:30N 35°38' E 139°48'0 0.0
2017-Apr-22 15:00N 35°38' E 139°48'0 0.0
2017-Apr-22 14:30N 35°38' E 139°48'0 0.0
2017-Apr-22 13:30N 35°38' E 139°48'0 0.0
2017-Apr-22 13:00N 35°38' E 139°48'0 0.0
2017-Apr-22 12:30N 35°38' E 139°48'0 0.0
2017-Apr-22 12:00N 35°38' E 139°48'0 0.0
2017-Apr-22 11:30N 35°38' E 139°48'0 0.0
2017-Apr-22 11:00N 35°38' E 139°48'0 0.0
2017-Apr-22 10:30N 35°38' E 139°48'0 0.0
2017-Apr-22 10:00N 35°38' E 139°48'0 0.0
2017-Apr-22 09:30N 35°38' E 139°48'0 0.0
2017-Apr-22 09:00N 35°38' E 139°48'0 0.0
2017-Apr-22 08:30N 35°38' E 139°48'0 0.0
2017-Apr-22 08:00N 35°38' E 139°48'0 0.0
2017-Apr-22 07:30N 35°38' E 139°48'0 0.0
2017-Apr-22 06:57N 35°38' E 139°48'0 0.0
2017-Apr-22 06:30N 35°38' E 139°48'0 0.0
2017-Apr-22 06:00N 35°38' E 139°48'0 0.0
2017-Apr-22 05:30N 35°38' E 139°48'0 0.0
2017-Apr-22 04:57N 35°38' E 139°48'0 0.0
2017-Apr-22 04:30N 35°38' E 139°48'0 0.0
2017-Apr-22 04:00N 35°38' E 139°48'0 0.0
2017-Apr-22 03:30N 35°38' E 139°48'0 0.0
2017-Apr-22 03:00N 35°38' E 139°48'0 0.0
2017-Apr-22 02:30N 35°38' E 139°48'0 0.0
2017-Apr-22 02:00N 35°38' E 139°48'0 0.0
2017-Apr-22 01:30N 35°38' E 139°48'0 0.0
2017-Apr-22 01:00N 35°38' E 139°48'0 0.0
2017-Apr-22 00:30N 35°38' E 139°48'0 0.0
2017-Apr-21 23:54N 35°38' E 139°48'0 0.0
2017-Apr-21 23:30N 35°38' E 139°48'0 0.0
2017-Apr-21 23:00N 35°38' E 139°48'0 0.0
2017-Apr-21 22:30N 35°38' E 139°48'0 0.0
2017-Apr-21 22:00N 35°38' E 139°48'0 0.0
2017-Apr-21 21:30N 35°38' E 139°48'0 0.0
2017-Apr-21 20:57N 35°38' E 139°48'0 0.0
2017-Apr-21 20:30N 35°38' E 139°48'0 0.0
2017-Apr-21 20:00N 35°38' E 139°48'0 0.0
2017-Apr-21 19:30N 35°38' E 139°48'0 0.0
2017-Apr-21 19:00N 35°38' E 139°48'0 0.0
2017-Apr-21 18:30N 35°38' E 139°48'0 0.0
2017-Apr-21 17:57N 35°38' E 139°48'0 0.0
2017-Apr-21 17:30N 35°38' E 139°48'0 0.0
2017-Apr-21 17:00N 35°38' E 139°48'0 0.0
2017-Apr-21 16:30N 35°38' E 139°48'0 0.0
2017-Apr-21 16:00N 35°38' E 139°48'0 0.0
2017-Apr-21 15:27N 35°38' E 139°48'0 0.0
2017-Apr-21 15:00N 35°38' E 139°48'0 0.0
2017-Apr-21 14:30N 35°38' E 139°48'0 0.0
2017-Apr-21 13:27N 35°38' E 139°48'0 0.0
2017-Apr-21 13:00N 35°38' E 139°48'0 0.0
2017-Apr-21 12:30N 35°38' E 139°48'0 0.0
2017-Apr-21 11:54N 35°38' E 139°48'0 0.0
2017-Apr-21 11:30N 35°38' E 139°48'0 0.0
2017-Apr-21 11:00N 35°38' E 139°48'0 0.0
2017-Apr-21 10:30N 35°38' E 139°48'0 0.0
2017-Apr-21 10:00N 35°38' E 139°48'0 0.0
2017-Apr-21 09:24N 35°38' E 139°48'0 0.0
2017-Apr-21 09:00N 35°38' E 139°48'0 0.0
2017-Apr-21 08:30N 35°38' E 139°48'0 0.0
2017-Apr-21 07:57N 35°38' E 139°48'0 0.0
2017-Apr-21 07:30N 35°38' E 139°48'0 0.0
2017-Apr-21 07:00N 35°38' E 139°48'0 0.0
2017-Apr-21 06:30N 35°38' E 139°48'0 0.0
2017-Apr-21 06:00N 35°38' E 139°48'0 0.0
2017-Apr-21 05:30N 35°38' E 139°48'0 0.0
2017-Apr-21 04:54N 35°38' E 139°48'0 0.0
2017-Apr-21 04:30N 35°38' E 139°48'0 0.0
2017-Apr-21 04:00N 35°38' E 139°48'0 0.0
2017-Apr-21 03:30N 35°38' E 139°48'0 0.0
2017-Apr-21 03:00N 35°38' E 139°48'0 0.0
2017-Apr-21 02:12N 35°38' E 139°48'0 0.0
2017-Apr-21 02:00N 35°38' E 139°48'0 0.0
2017-Apr-21 01:30N 35°38' E 139°48'0 0.0
2017-Apr-21 01:00N 35°38' E 139°48'0 0.0
2017-Apr-21 00:30N 35°38' E 139°48'0 0.0
2017-Apr-21 00:00N 35°38' E 139°48'0 0.0
2017-Apr-20 23:30N 35°38' E 139°48'0 0.0
2017-Apr-20 23:00N 35°38' E 139°48'0 0.0
2017-Apr-20 22:27N 35°38' E 139°48'0 0.0
2017-Apr-20 22:00N 35°38' E 139°48'0 0.0
2017-Apr-20 21:30N 35°38' E 139°48'0 0.0
2017-Apr-20 20:57N 35°38' E 139°48'0 0.0
2017-Apr-20 20:27N 35°38' E 139°48'0 0.0
2017-Apr-20 20:00N 35°38' E 139°48'0 0.0
2017-Apr-20 19:30N 35°38' E 139°48'0 0.0
2017-Apr-20 19:00N 35°38' E 139°48'0 0.0
2017-Apr-20 18:30N 35°38' E 139°48'0 0.0
2017-Apr-20 18:00N 35°38' E 139°48'0 0.0
2017-Apr-20 17:30N 35°38' E 139°48'0 0.0
2017-Apr-20 17:00N 35°38' E 139°48'0 0.0
2017-Apr-20 16:30N 35°38' E 139°48'0 0.0
2017-Apr-20 16:00N 35°38' E 139°48'0 0.0
2017-Apr-20 15:30N 35°38' E 139°48'0 0.0
2017-Apr-20 15:00N 35°38' E 139°48'0 0.0
2017-Apr-20 14:30N 35°38' E 139°48'0 0.0
2017-Apr-20 13:30N 35°38' E 139°48'0 0.0
2017-Apr-20 12:57N 35°38' E 139°48'0 0.0
2017-Apr-20 12:30N 35°38' E 139°48'0 0.0
2017-Apr-20 11:57N 35°38' E 139°48'0 0.0
2017-Apr-20 11:27N 35°38' E 139°48'0 0.0
2017-Apr-20 11:00N 35°38' E 139°48'0 0.0
2017-Apr-20 10:18N 35°38' E 139°48'0 0.0
2017-Apr-20 09:36N 35°38' E 139°48'0 0.0
2017-Apr-20 09:30N 35°38' E 139°48'0 0.0
2017-Apr-20 08:54N 35°38' E 139°48'0 0.0
2017-Apr-20 08:30N 35°38' E 139°48'0 0.0
2017-Apr-20 07:54N 35°38' E 139°48'0 0.0
2017-Apr-20 07:30N 35°38' E 139°48'0 0.0
2017-Apr-20 07:00N 35°38' E 139°48'0 0.0
2017-Apr-20 06:30N 35°38' E 139°48'0 0.0
2017-Apr-20 05:48N 35°38' E 139°48'0 0.0
2017-Apr-20 05:30N 35°38' E 139°48'0 0.0
2017-Apr-20 05:00N 35°38' E 139°48'0 0.0
2017-Apr-20 04:30N 35°38' E 139°48'0 0.0
2017-Apr-20 03:48N 35°38' E 139°48'0 0.0
2017-Apr-20 03:30N 35°38' E 139°48'0 0.0
2017-Apr-20 02:54N 35°38' E 139°48'0 0.0
2017-Apr-20 02:30N 35°38' E 139°48'0 0.0
2017-Apr-20 01:57N 35°38' E 139°48'0 0.0
2017-Apr-20 01:27N 35°38' E 139°48'0 0.0
2017-Apr-20 01:00N 35°38' E 139°48'0 0.0
2017-Apr-20 00:30N 35°38' E 139°48'0 0.0
2017-Apr-19 23:57N 35°38' E 139°48'0 0.0
2017-Apr-19 23:30N 35°38' E 139°48'0 0.0
2017-Apr-19 22:57N 35°38' E 139°48'0 0.0
2017-Apr-19 22:30N 35°38' E 139°48'0 0.0
2017-Apr-19 22:00N 35°38' E 139°48'0 0.0
2017-Apr-19 21:30N 35°38' E 139°48'0 0.0
2017-Apr-19 21:00N 35°38' E 139°48'0 0.0
2017-Apr-19 20:30N 35°38' E 139°48'0 0.0
2017-Apr-19 20:00N 35°38' E 139°48'0 0.0
2017-Apr-19 19:27N 35°38' E 139°48'0 0.0
2017-Apr-19 19:00N 35°38' E 139°48'0 0.0
2017-Apr-19 18:27N 35°38' E 139°48'0 0.0
2017-Apr-19 17:57N 35°38' E 139°48'0 0.0
2017-Apr-19 17:30N 35°38' E 139°48'0 0.0
2017-Apr-19 17:00N 35°38' E 139°48'0 0.0
2017-Apr-19 16:30N 35°38' E 139°48'0 0.0
2017-Apr-19 16:00N 35°38' E 139°48'0 0.0
2017-Apr-19 15:30N 35°38' E 139°48'0 0.0
2017-Apr-19 14:57N 35°38' E 139°48'0 0.0
2017-Apr-19 14:30N 35°38' E 139°48'0 0.0
2017-Apr-19 13:30N 35°38' E 139°48'0 0.0
2017-Apr-19 13:00N 35°38' E 139°48'0 0.0
2017-Apr-19 12:30N 35°38' E 139°48'0 0.0
2017-Apr-19 11:57N 35°38' E 139°48'0 0.0
2017-Apr-19 10:48N 35°38' E 139°48'0 0.0
2017-Apr-19 10:30N 35°38' E 139°48'0 0.0
2017-Apr-19 10:00N 35°38' E 139°48'0 0.0
2017-Apr-19 09:27N 35°38' E 139°48'0 0.0
2017-Apr-19 09:00N 35°38' E 139°48'0 0.0
2017-Apr-19 08:27N 35°38' E 139°48'  

Dump ship's entire track history